Temp: 17.4°C   Baro: 1010.0mb
  Wind: 6.9mph   Dir: WNW (284°)
  Rain: 0.8mm (0.0mm/hr)
  Solar: 132W/m2  Hum: 91%
 
Bath Spa Weather Station Historical Data
Daily Summary for November 24, 2019 Units:  Metric    English   Both
Daily Weekly Monthly Yearly Custom
  High: Low: Average:
Temperature: 10.8 °C 9.2 °C 10.3 °C
Dew Point: 10.1 °C 8.6 °C 9.4 °C
Humidity: 97% 90% 94%
Wind Speed: 12.9km/h 0km/h 2.6km/h
Wind Gust: 43.5km/h - -
Wind- - SSE
Pressure: 1003.3 hPa 998.9 hPa -
Precipitation: 0.25 mm    
Historical Graphs
 
 
Tabular Data for November 24, 2019
Time Temperature Dew Point Pressure Wind Wind Speed Wind Gust Humidity Rainfall Rate (Hourly) solar
00:04 9.5 °C 8.9 °C 999.2 hPa Calm     96% 0 mm 0 W/m2
00:09 9.5 °C 8.9 °C 999.2 hPa Calm     96% 0 mm 0 W/m2
00:14 9.5 °C 8.9 °C 998.9 hPa Calm     96% 0 mm 0 W/m2
00:19 9.5 °C 8.9 °C 999.2 hPa Calm     96% 0 mm 0 W/m2
00:24 9.5 °C 8.9 °C 999.2 hPa Calm   1.6 km/h 96% 0 mm 0 W/m2
00:29 9.4 °C 8.8 °C 999.2 hPa Calm   1.6 km/h 96% 0 mm 0 W/m2
00:34 9.4 °C 8.8 °C 999.2 hPa Calm     96% 0 mm 0 W/m2
00:39 9.4 °C 8.8 °C 999.2 hPa North 0.3 km/h 9.7 km/h 96% 0 mm 0 W/m2
00:44 9.4 °C 8.8 °C 999.2 hPa Calm   1.6 km/h 96% 0 mm 0 W/m2
00:49 9.4 °C 8.8 °C 999.5 hPa Calm   3.2 km/h 96% 0 mm 0 W/m2
00:54 9.5 °C 8.9 °C 999.5 hPa Calm   1.6 km/h 96% 0 mm 0 W/m2
00:59 9.5 °C 8.9 °C 999.5 hPa Calm     96% 0 mm 0 W/m2
01:04 9.5 °C 8.9 °C 999.5 hPa Calm     96% 0 mm 0 W/m2
01:09 9.5 °C 8.9 °C 999.5 hPa Calm     96% 0 mm 0 W/m2
01:14 9.5 °C 8.9 °C 999.5 hPa Calm     96% 0 mm 0 W/m2
01:19 9.5 °C 8.9 °C 999.5 hPa Calm     96% 0 mm 0 W/m2
01:24 9.6 °C 8.9 °C 999.5 hPa Calm     96% 0 mm 0 W/m2
01:29 9.6 °C 8.9 °C 999.5 hPa Calm     96% 0 mm 0 W/m2
01:34 9.6 °C 9 °C 999.5 hPa Calm     96% 0 mm 0 W/m2
01:36 9.6 °C 8.9 °C 999.5 hPa Calm     96% 0 mm 0 W/m2
07:03 9.2 °C 8.6 °C 1001.9 hPa Calm     96% 0 mm 0 W/m2
07:09 9.2 °C 8.6 °C 1001.9 hPa Calm     96% 0 mm 0 W/m2
07:14 9.2 °C 8.6 °C 1001.9 hPa Calm     96% 0 mm 0 W/m2
07:19 9.2 °C 8.6 °C 1001.9 hPa Calm     96% 0 mm 0 W/m2
07:24 9.2 °C 8.6 °C 1001.9 hPa Calm     96% 0 mm 0 W/m2
07:29 9.2 °C 8.6 °C 1001.9 hPa Calm     96% 0 mm 0 W/m2
07:34 9.2 °C 8.6 °C 1002.3 hPa Calm     96% 0 mm 0 W/m2
07:39 9.2 °C 8.6 °C 1002.3 hPa Calm     96% 0 mm 0 W/m2
07:44 9.2 °C 8.6 °C 1002.3 hPa Calm     96% 0 mm 0 W/m2
07:49 9.2 °C 8.6 °C 1002.3 hPa Calm     96% 0.25 mm 0 W/m2
07:54 9.2 °C 8.6 °C 1002.3 hPa Calm     96% 0.25 mm 0 W/m2
07:59 9.3 °C 8.7 °C 1002.6 hPa Calm     96% 0.25 mm 0 W/m2
08:04 9.3 °C 8.7 °C 1002.6 hPa Calm     96% 0.25 mm 5 W/m2
08:09 9.3 °C 8.8 °C 1002.6 hPa Calm     96.2% 0.25 mm 9 W/m2
08:14 9.3 °C 8.7 °C 1002.6 hPa Calm     96% 0.25 mm 9 W/m2
08:18 9.3 °C 8.7 °C 1002.6 hPa Calm     96% 0.25 mm 7 W/m2
08:24 9.3 °C 8.8 °C 1002.6 hPa Calm     96% 0.25 mm 7 W/m2
08:29 9.4 °C 8.9 °C 1002.9 hPa Calm     97% 0.25 mm 9 W/m2
08:34 9.6 °C 9.1 °C 1002.9 hPa Calm     96.6% 0.25 mm 14 W/m2
08:39 9.7 °C 9.1 °C 1002.9 hPa Calm     96% 0.25 mm 14 W/m2
08:44 9.7 °C 9.1 °C 1002.9 hPa Calm     96% 0.25 mm 16 W/m2
08:49 9.8 °C 9.3 °C 1002.9 hPa Calm     96.5% 0.25 mm 19 W/m2
08:54 9.9 °C 9.4 °C 1002.9 hPa Calm     97% 0 mm 19 W/m2
08:59 10.1 °C 9.5 °C 1002.9 hPa Calm     96.6% 0 mm 21 W/m2
09:04 10 °C 9.5 °C 1002.9 hPa Calm     96.6% 0 mm 21 W/m2
09:09 10.1 °C 9.6 °C 1002.9 hPa Calm     96.8% 0 mm 26 W/m2
09:14 10.2 °C 9.7 °C 1002.9 hPa Calm     97% 0 mm 33 W/m2
09:19 9.9 °C 9.4 °C 1002.9 hPa Calm     96.8% 0 mm 37 W/m2
09:24 9.8 °C 9.3 °C 1002.9 hPa Calm     97% 0 mm 35 W/m2
09:29 9.8 °C 9.3 °C 1002.9 hPa Calm     97% 0 mm 32 W/m2
09:34 10 °C 9.5 °C 1002.9 hPa Calm     97% 0 mm 32 W/m2
09:39 10.2 °C 9.7 °C 1002.9 hPa Calm     97% 0 mm 33 W/m2
09:44 10.2 °C 9.7 °C 1002.9 hPa Calm   1.6 km/h 97% 0 mm 40 W/m2
09:49 10.1 °C 9.6 °C 1003.3 hPa Calm     97% 0 mm 46 W/m2
09:54 9.9 °C 9.4 °C 1003.3 hPa Calm     97% 0 mm 49 W/m2
09:59 9.9 °C 9.4 °C 1003.3 hPa Calm     97% 0 mm 63 W/m2
10:04 9.9 °C 9.4 °C 1003.3 hPa Calm     97% 0 mm 77 W/m2
10:09 10 °C 9.5 °C 1003.3 hPa Calm     97% 0 mm 74 W/m2
10:14 10.1 °C 9.6 °C 1003.3 hPa Calm   3.2 km/h 97% 0 mm 70 W/m2
10:19 9.9 °C 9.4 °C 1003.3 hPa Calm   3.2 km/h 97% 0 mm 74 W/m2
10:24 10.1 °C 9.6 °C 1003.3 hPa Calm     97% 0 mm 77 W/m2
10:29 10.2 °C 9.7 °C 1003.3 hPa North 0.6 km/h 3.2 km/h 97% 0 mm 79 W/m2
10:34 10.2 °C 9.7 °C 1003.3 hPa Calm   3.2 km/h 97% 0 mm 70 W/m2
10:39 10.2 °C 9.7 °C 1003.3 hPa Calm   1.6 km/h 97% 0 mm 70 W/m2
10:44 10.2 °C 9.7 °C 1003.3 hPa Calm     97% 0 mm 65 W/m2
10:49 10.2 °C 9.7 °C 1003.3 hPa Calm     97% 0 mm 39 W/m2
10:54 10.3 °C 9.8 °C 1003.3 hPa North 0.3 km/h 1.6 km/h 97% 0 mm 56 W/m2
10:59 10.3 °C 9.8 °C 1002.9 hPa Calm   1.6 km/h 97% 0 mm 62 W/m2
11:04 10.2 °C 9.6 °C 1002.9 hPa North 4.8 km/h 12.9 km/h 97% 0 mm 62 W/m2
11:09 10 °C 9.5 °C 1002.9 hPa North 0.3 km/h 6.4 km/h 97% 0 mm 63 W/m2
11:14 10.1 °C 9.6 °C 1002.9 hPa North 0.3 km/h 3.2 km/h 96.8% 0 mm 76 W/m2
11:19 10.1 °C 9.6 °C 1002.9 hPa North 1.6 km/h 12.9 km/h 97% 0 mm 77 W/m2
11:24 10.2 °C 9.7 °C 1002.9 hPa Calm   4.8 km/h 97% 0 mm 74 W/m2
11:29 10.3 °C 9.8 °C 1002.9 hPa Calm   3.2 km/h 97% 0 mm 54 W/m2
11:33 10.3 °C 9.8 °C 1002.9 hPa SW 6.1 km/h 14.5 km/h 97% 0 mm 56 W/m2
11:39 10.3 °C 9.8 °C 1002.9 hPa SW 2.9 km/h 19.3 km/h 97% 0 mm 63 W/m2
11:44 10.2 °C 9.7 °C 1002.9 hPa SW 2.1 km/h 19.3 km/h 97% 0 mm 69 W/m2
11:49 10.3 °C 9.8 °C 1002.9 hPa SW 1.6 km/h 8 km/h 96.8% 0 mm 70 W/m2
11:54 10.4 °C 9.8 °C 1002.9 hPa SW 2.3 km/h 9.7 km/h 96% 0 mm 67 W/m2
11:59 10.3 °C 9.7 °C 1002.9 hPa Calm     96% 0 mm 65 W/m2
12:04 10.3 °C 9.7 °C 1002.9 hPa SW 2.9 km/h 11.3 km/h 96% 0 mm 67 W/m2
12:09 10.3 °C 9.7 °C 1002.9 hPa SW 1.6 km/h 11.3 km/h 96% 0 mm 76 W/m2
12:14 10.4 °C 9.8 °C 1002.9 hPa WSW 0.6 km/h 6.4 km/h 96% 0 mm 90 W/m2
12:19 10.5 °C 9.9 °C 1002.9 hPa WSW 1.9 km/h 4.8 km/h 96% 0 mm 90 W/m2
12:24 10.4 °C 9.8 °C 1002.9 hPa Calm   4.8 km/h 96% 0 mm 91 W/m2
12:29 10.5 °C 9.9 °C 1002.6 hPa WSW 8.7 km/h 43.5 km/h 96% 0 mm 90 W/m2
12:33 10.6 °C 9.9 °C 1002.6 hPa Calm     96% 0 mm 74 W/m2
12:36 10.6 °C 10 °C 1002.6 hPa Calm   17.7 km/h 96% 0 mm 54 W/m2
12:44 10.5 °C 9.9 °C 1002.6 hPa WSW 0.3 km/h 8 km/h 96% 0 mm 51 W/m2
12:49 10.7 °C 10.1 °C 1002.6 hPa Calm     96% 0 mm 60 W/m2
12:54 10.6 °C 10 °C 1002.6 hPa WSW 0.3 km/h 1.6 km/h 96% 0 mm 63 W/m2
12:59 10.7 °C 10.1 °C 1002.6 hPa WSW 2.1 km/h 25.7 km/h 96% 0 mm 54 W/m2
13:04 10.6 °C 10 °C 1002.9 hPa WSW 1.6 km/h 16.1 km/h 96% 0 mm 49 W/m2
13:09 10.6 °C 9.9 °C 1002.9 hPa SW 9.3 km/h 32.2 km/h 95.6% 0 mm 47 W/m2
13:14 10.6 °C 9.8 °C 1002.9 hPa SW 5.1 km/h 32.2 km/h 95% 0 mm 44 W/m2
13:19 10.6 °C 9.8 °C 1002.9 hPa SW 2.4 km/h 9.7 km/h 95% 0 mm 42 W/m2
13:24 10.7 °C 9.8 °C 1002.9 hPa SW 3.9 km/h 12.9 km/h 95% 0 mm 42 W/m2
13:29 10.7 °C 9.9 °C 1002.9 hPa SW 3.2 km/h 9.7 km/h 95% 0 mm 37 W/m2
13:34 10.7 °C 9.8 °C 1002.9 hPa SW 0.3 km/h 9.7 km/h 95% 0 mm 30 W/m2
13:39 10.7 °C 9.8 °C 1002.9 hPa Calm   8 km/h 94.8% 0 mm 23 W/m2
13:44 10.7 °C 9.8 °C 1002.9 hPa SW 1.9 km/h 9.7 km/h 94.2% 0 mm 25 W/m2
13:49 10.7 °C 9.8 °C 1002.9 hPa SW 8.7 km/h 12.9 km/h 94% 0 mm 37 W/m2
13:54 10.7 °C 9.8 °C 1002.6 hPa SSW 4 km/h 11.3 km/h 94% 0 mm 47 W/m2
13:59 10.6 °C 9.7 °C 1002.6 hPa SSW 2.3 km/h 8 km/h 94% 0 mm 49 W/m2
14:04 10.6 °C 9.6 °C 1002.6 hPa SSW 3.2 km/h 8 km/h 93.2% 0 mm 49 W/m2
14:09 10.7 °C 9.6 °C 1002.6 hPa SSW 6.4 km/h 16.1 km/h 93% 0 mm 49 W/m2
14:14 10.7 °C 9.6 °C 1002.6 hPa SSW 3.7 km/h 16.1 km/h 93% 0 mm 39 W/m2
14:19 10.7 °C 9.6 °C 1002.6 hPa SSW 4.2 km/h 16.1 km/h 93% 0 mm 39 W/m2
14:24 10.7 °C 9.6 °C 1002.6 hPa SSW 7.7 km/h 27.4 km/h 92.8% 0 mm 33 W/m2
14:29 10.7 °C 9.5 °C 1002.6 hPa SSW 4.7 km/h 14.5 km/h 92% 0 mm 28 W/m2
14:34 10.7 °C 9.6 °C 1002.6 hPa SSW 12.9 km/h 30.6 km/h 92% 0 mm 21 W/m2
14:39 10.7 °C 9.5 °C 1002.6 hPa Calm   14.5 km/h 92% 0 mm 19 W/m2
14:44 10.8 °C 9.6 °C 1002.6 hPa Calm   3.2 km/h 92% 0 mm 16 W/m2
14:49 10.8 °C 9.6 °C 1002.6 hPa SSW 1.4 km/h 4.8 km/h 92% 0 mm 14 W/m2
14:54 10.7 °C 9.5 °C 1002.3 hPa SSW 2.3 km/h 8 km/h 92% 0 mm 12 W/m2
14:59 10.7 °C 9.5 °C 1002.3 hPa Calm   8 km/h 92% 0 mm 12 W/m2
15:04 10.8 °C 9.6 °C 1002.3 hPa Calm   3.2 km/h 92% 0 mm 12 W/m2
15:09 10.8 °C 9.6 °C 1002.3 hPa SSW 1 km/h 4.8 km/h 92% 0 mm 11 W/m2
15:14 10.8 °C 9.6 °C 1002.3 hPa SSW 1.9 km/h 8 km/h 92% 0 mm 11 W/m2
15:19 10.8 °C 9.6 °C 1002.3 hPa Calm   8 km/h 92% 0 mm 9 W/m2
15:23 10.8 °C 9.6 °C 1002.3 hPa Calm   3.2 km/h 92% 0 mm 9 W/m2
15:29 10.7 °C 9.5 °C 1002.3 hPa SSW 1.3 km/h 6.4 km/h 92% 0 mm 9 W/m2
15:34 10.7 °C 9.5 °C 1002.3 hPa Calm   6.4 km/h 92% 0 mm 7 W/m2
15:39 10.7 °C 9.5 °C 1002.3 hPa Calm   4.8 km/h 92% 0 mm 7 W/m2
15:44 10.7 °C 9.5 °C 1002.3 hPa Calm   3.2 km/h 92% 0 mm 5 W/m2
15:49 10.7 °C 9.5 °C 1002.3 hPa Calm   1.6 km/h 92% 0 mm 0 W/m2
15:54 10.7 °C 9.4 °C 1002.3 hPa Calm   3.2 km/h 92% 0 mm 0 W/m2
15:59 10.6 °C 9.4 °C 1002.6 hPa Calm     92% 0 mm 0 W/m2
16:04 10.6 °C 9.4 °C 1002.3 hPa SSW 3.9 km/h 11.3 km/h 92% 0 mm 0 W/m2
16:09 10.6 °C 9.4 °C 1002.3 hPa SSW 2.9 km/h 9.7 km/h 92% 0 mm 0 W/m2
16:14 10.6 °C 9.4 °C 1002.3 hPa SSW 1.6 km/h 6.4 km/h 92% 0 mm 0 W/m2
16:18 10.6 °C 9.4 °C 1002.3 hPa SSW 5.3 km/h 8 km/h 92% 0 mm 0 W/m2
16:24 10.6 °C 9.4 °C 1002.3 hPa SSW 0.6 km/h 8 km/h 92% 0 mm 0 W/m2
16:29 10.6 °C 9.4 °C 1002.3 hPa SSW 7.7 km/h 19.3 km/h 92% 0 mm 0 W/m2
16:34 10.6 °C 9.4 °C 1001.9 hPa SSW 2.6 km/h 17.7 km/h 92% 0 mm 0 W/m2
16:39 10.6 °C 9.4 °C 1001.9 hPa SSW 4.8 km/h 19.3 km/h 92% 0 mm 0 W/m2
16:44 10.6 °C 9.4 °C 1001.9 hPa SSW 2.3 km/h 9.7 km/h 92% 0 mm 0 W/m2
16:49 10.6 °C 9.4 °C 1001.9 hPa SSW 4.5 km/h 12.9 km/h 92.6% 0 mm 0 W/m2
16:53 10.6 °C 9.5 °C 1001.9 hPa SSW 2.7 km/h 20.9 km/h 93% 0 mm 0 W/m2
16:59 10.6 °C 9.5 °C 1001.9 hPa SSW 4.7 km/h 11.3 km/h 93% 0 mm 0 W/m2
17:04 10.6 °C 9.5 °C 1001.9 hPa SSW 1.3 km/h 11.3 km/h 93% 0 mm 0 W/m2
17:09 10.6 °C 9.5 °C 1001.9 hPa SSW 2.6 km/h 11.3 km/h 93% 0 mm 0 W/m2
17:14 10.6 °C 9.5 °C 1001.9 hPa SSW 1.6 km/h 11.3 km/h 93% 0 mm 0 W/m2
17:19 10.6 °C 9.5 °C 1001.9 hPa SSW 5.1 km/h 8 km/h 93% 0 mm 0 W/m2
17:24 10.6 °C 9.5 °C 1001.9 hPa SSW 7.1 km/h 14.5 km/h 93% 0 mm 0 W/m2
17:29 10.6 °C 9.5 °C 1001.9 hPa South 5.1 km/h 14.5 km/h 93% 0 mm 0 W/m2
17:34 10.6 °C 9.5 °C 1001.9 hPa SSE 4.7 km/h 14.5 km/h 93% 0 mm 0 W/m2
17:39 10.6 °C 9.5 °C 1001.9 hPa SE 3.2 km/h 14.5 km/h 93% 0 mm 0 W/m2
17:44 10.6 °C 9.5 °C 1001.9 hPa SE 9.3 km/h 20.9 km/h 93% 0 mm 0 W/m2
17:49 10.6 °C 9.5 °C 1001.9 hPa SE 4.8 km/h 20.9 km/h 93% 0 mm 0 W/m2
17:54 10.6 °C 9.5 °C 1001.9 hPa SE 3.2 km/h 17.7 km/h 93% 0 mm 0 W/m2
17:59 10.6 °C 9.5 °C 1001.9 hPa SE 8 km/h 12.9 km/h 93% 0 mm 0 W/m2
18:04 10.6 °C 9.5 °C 1001.9 hPa SE 10.3 km/h 16.1 km/h 93% 0 mm 0 W/m2
18:09 10.6 °C 9.5 °C 1001.9 hPa SE 7.7 km/h 16.1 km/h 93% 0 mm 0 W/m2
18:14 10.6 °C 9.5 °C 1001.6 hPa SE 5.6 km/h 16.1 km/h 93% 0 mm 0 W/m2
18:19 10.6 °C 9.5 °C 1001.6 hPa SE 3.5 km/h 11.3 km/h 93% 0 mm 0 W/m2
18:24 10.6 °C 9.5 °C 1001.6 hPa SE 6 km/h 11.3 km/h 93% 0 mm 0 W/m2
18:29 10.6 °C 9.5 °C 1001.6 hPa ESE 5.1 km/h 12.9 km/h 93% 0 mm 0 W/m2
18:34 10.6 °C 9.5 °C 1001.9 hPa ESE 4.3 km/h 12.9 km/h 93% 0 mm 0 W/m2
18:39 10.6 °C 9.5 °C 1001.9 hPa SE 2.9 km/h 11.3 km/h 93% 0 mm 0 W/m2
18:44 10.6 °C 9.5 °C 1001.6 hPa SE 4.3 km/h 9.7 km/h 93% 0 mm 0 W/m2
18:49 10.6 °C 9.5 °C 1001.6 hPa SE 4.5 km/h 11.3 km/h 93% 0 mm 0 W/m2
18:54 10.6 °C 9.5 °C 1001.6 hPa ESE 3.5 km/h 14.5 km/h 93% 0 mm 0 W/m2
18:59 10.6 °C 9.5 °C 1001.6 hPa ESE 4.7 km/h 12.9 km/h 93% 0 mm 0 W/m2
19:04 10.6 °C 9.5 °C 1001.9 hPa SE 6.6 km/h 12.9 km/h 93% 0 mm 0 W/m2
19:09 10.6 °C 9.5 °C 1001.6 hPa ESE 2.7 km/h 11.3 km/h 93% 0 mm 0 W/m2
19:14 10.6 °C 9.4 °C 1001.6 hPa ESE 4.8 km/h 11.3 km/h 93% 0 mm 0 W/m2
19:19 10.5 °C 9.4 °C 1001.9 hPa ESE 2.6 km/h 16.1 km/h 93% 0 mm 0 W/m2
19:24 10.4 °C 9.3 °C 1001.9 hPa Calm     93% 0 mm 0 W/m2
19:29 10.4 °C 9.3 °C 1001.9 hPa Calm     93% 0 mm 0 W/m2
19:34 10.4 °C 9.3 °C 1001.9 hPa ESE 0.3 km/h 1.6 km/h 93% 0 mm 0 W/m2
19:39 10.5 °C 9.4 °C 1001.9 hPa ESE 1.3 km/h 4.8 km/h 93% 0 mm 0 W/m2
19:44 10.5 °C 9.4 °C 1001.9 hPa ESE 1.9 km/h 4.8 km/h 93% 0 mm 0 W/m2
19:49 10.5 °C 9.4 °C 1001.9 hPa ESE 1.9 km/h 6.4 km/h 93% 0 mm 0 W/m2
19:54 10.5 °C 9.4 °C 1001.9 hPa ESE 3.9 km/h 9.7 km/h 93% 0 mm 0 W/m2
19:59 10.6 °C 9.4 °C 1001.9 hPa ESE 2.1 km/h 6.4 km/h 93% 0 mm 0 W/m2
20:04 10.6 °C 9.4 °C 1001.9 hPa ESE 3.2 km/h 9.7 km/h 93% 0 mm 0 W/m2
20:09 10.6 °C 9.5 °C 1001.9 hPa ESE 1 km/h 9.7 km/h 93% 0 mm 0 W/m2
20:14 10.6 °C 9.4 °C 1001.9 hPa ESE 1 km/h 8 km/h 93% 0 mm 0 W/m2
20:19 10.5 °C 9.4 °C 1001.9 hPa ESE 0.3 km/h 9.7 km/h 93% 0 mm 0 W/m2
20:23 10.6 °C 9.5 °C 1001.9 hPa ESE 3.2 km/h 6.4 km/h 93% 0 mm 0 W/m2
20:29 10.6 °C 9.4 °C 1001.9 hPa ESE 3.2 km/h 9.7 km/h 93% 0 mm 0 W/m2
20:34 10.6 °C 9.5 °C 1001.9 hPa ESE 3.5 km/h 8 km/h 93% 0 mm 0 W/m2
20:39 10.6 °C 9.5 °C 1001.6 hPa ESE 2.7 km/h 12.9 km/h 93% 0 mm 0 W/m2
20:44 10.6 °C 9.5 °C 1001.6 hPa ESE 3.2 km/h 9.7 km/h 93% 0 mm 0 W/m2
20:49 10.6 °C 9.5 °C 1001.6 hPa ESE 5.5 km/h 14.5 km/h 93% 0 mm 0 W/m2
20:54 10.6 °C 9.5 °C 1001.6 hPa SE 6.3 km/h 14.5 km/h 93% 0 mm 0 W/m2
20:59 10.6 °C 9.5 °C 1001.6 hPa SE 1.9 km/h 9.7 km/h 93% 0 mm 0 W/m2
21:04 10.6 °C 9.5 °C 1001.6 hPa SE 3.5 km/h 8 km/h 93% 0 mm 0 W/m2
21:09 10.6 °C 9.5 °C 1001.6 hPa SE 3.5 km/h 11.3 km/h 93% 0 mm 0 W/m2
21:14 10.6 °C 9.5 °C 1001.6 hPa SE 5.3 km/h 8 km/h 93% 0 mm 0 W/m2
21:19 10.6 °C 9.5 °C 1001.6 hPa SE 7.7 km/h 11.3 km/h 93% 0 mm 0 W/m2
21:24 10.6 °C 9.5 °C 1001.2 hPa ESE 8.4 km/h 12.9 km/h 93% 0 mm 0 W/m2
21:29 10.6 °C 9.5 °C 1001.2 hPa ESE 4.5 km/h 11.3 km/h 93% 0 mm 0 W/m2
21:34 10.6 °C 9.5 °C 1001.2 hPa ESE 5 km/h 11.3 km/h 93% 0 mm 0 W/m2
21:39 10.6 °C 9.5 °C 1001.2 hPa ESE 9.3 km/h 14.5 km/h 93% 0 mm 0 W/m2
21:44 10.6 °C 9.5 °C 1001.2 hPa ESE 6.6 km/h 14.5 km/h 93% 0 mm 0 W/m2
21:49 10.6 °C 9.5 °C 1001.2 hPa ESE 8 km/h 16.1 km/h 93% 0 mm 0 W/m2
21:54 10.7 °C 9.6 °C 1001.2 hPa ESE 4 km/h 16.1 km/h 93% 0 mm 0 W/m2
21:59 10.7 °C 9.6 °C 1001.2 hPa ESE 4 km/h 16.1 km/h 93% 0 mm 0 W/m2
22:04 10.7 °C 9.6 °C 1001.2 hPa ESE 7.2 km/h 14.5 km/h 93% 0 mm 0 W/m2
22:09 10.7 °C 9.6 °C 1001.2 hPa ESE 5.3 km/h 14.5 km/h 93% 0 mm 0 W/m2
22:14 10.7 °C 9.6 °C 1000.9 hPa SE 7.2 km/h 11.3 km/h 93% 0 mm 0 W/m2
22:19 10.7 °C 9.6 °C 1000.9 hPa ESE 5.6 km/h 12.9 km/h 93% 0 mm 0 W/m2
22:24 10.7 °C 9.6 °C 1000.9 hPa ESE 6.8 km/h 14.5 km/h 93% 0 mm 0 W/m2
22:29 10.7 °C 9.6 °C 1000.9 hPa ESE 6.4 km/h 12.9 km/h 93% 0 mm 0 W/m2
22:34 10.7 °C 9.6 °C 1000.9 hPa SE 4.7 km/h 11.3 km/h 93% 0 mm 0 W/m2
22:39 10.7 °C 9.6 °C 1000.9 hPa SE 8.7 km/h 12.9 km/h 93% 0 mm 0 W/m2
22:44 10.7 °C 9.6 °C 1000.9 hPa SE 6.6 km/h 9.7 km/h 93% 0 mm 0 W/m2
22:49 10.7 °C 9.6 °C 1000.9 hPa SE 6.4 km/h 14.5 km/h 92.8% 0 mm 0 W/m2
22:54 10.7 °C 9.5 °C 1000.9 hPa SE 3.7 km/h 12.9 km/h 92% 0 mm 0 W/m2
22:59 10.7 °C 9.4 °C 1000.9 hPa SE 3.4 km/h 12.9 km/h 92% 0 mm 0 W/m2
23:04 10.6 °C 9.4 °C 1000.9 hPa SE 6.4 km/h 11.3 km/h 92% 0 mm 0 W/m2
23:09 10.6 °C 9.4 °C 1000.9 hPa SE 6.1 km/h 12.9 km/h 92% 0 mm 0 W/m2
23:14 10.6 °C 9.4 °C 1000.9 hPa SE 8.5 km/h 14.5 km/h 92% 0 mm 0 W/m2
23:19 10.6 °C 9.4 °C 1000.9 hPa SE 5.1 km/h 14.5 km/h 92% 0 mm 0 W/m2
23:24 10.6 °C 9.3 °C 1000.9 hPa SE 10.9 km/h 17.7 km/h 91.6% 0 mm 0 W/m2
23:29 10.7 °C 9.3 °C 1000.9 hPa SE 4 km/h 17.7 km/h 91% 0 mm 0 W/m2
23:34 10.7 °C 9.3 °C 1000.9 hPa SE 5.1 km/h 16.1 km/h 91% 0 mm 0 W/m2
23:39 10.7 °C 9.2 °C 1000.9 hPa SSE 7.1 km/h 14.5 km/h 91% 0 mm 0 W/m2
23:44 10.6 °C 9.1 °C 1000.9 hPa SE 4.7 km/h 12.9 km/h 90.2% 0 mm 0 W/m2
23:49 10.6 °C 9 °C 1000.9 hPa SE 10.9 km/h 17.7 km/h 90% 0 mm 0 W/m2
23:54 10.6 °C 9 °C 1000.6 hPa SE 5.1 km/h 9.7 km/h 90% 0 mm 0 W/m2
23:59 10.4 °C 8.8 °C 1000.6 hPa ESE 3.1 km/h 17.7 km/h 90% 0 mm 0 W/m2
Bath Spa Weather
Compliments of Weather Underground - 2 mb